sensor_id;sensor_type;location;lat;lon;timestamp;temperature;humidity
66598;DHT22;57424;53.128;6.406;2022-10-18T00:01:25;18.50;64.70
66598;DHT22;57424;53.128;6.406;2022-10-18T00:03:50;18.50;64.70
66598;DHT22;57424;53.128;6.406;2022-10-18T00:06:16;18.50;64.70
66598;DHT22;57424;53.128;6.406;2022-10-18T00:08:41;18.50;64.70
66598;DHT22;57424;53.128;6.406;2022-10-18T00:11:07;18.50;65.40
66598;DHT22;57424;53.128;6.406;2022-10-18T00:13:33;18.50;64.70
66598;DHT22;57424;53.128;6.406;2022-10-18T00:16:02;18.50;64.70
66598;DHT22;57424;53.128;6.406;2022-10-18T00:18:28;18.50;64.70
66598;DHT22;57424;53.128;6.406;2022-10-18T00:21:02;18.50;64.70
66598;DHT22;57424;53.128;6.406;2022-10-18T00:23:29;18.50;64.70
66598;DHT22;57424;53.128;6.406;2022-10-18T00:26:22;18.50;64.70
66598;DHT22;57424;53.128;6.406;2022-10-18T00:28:56;18.50;64.70
66598;DHT22;57424;53.128;6.406;2022-10-18T00:31:36;18.50;64.70
66598;DHT22;57424;53.128;6.406;2022-10-18T00:34:08;18.50;64.70
66598;DHT22;57424;53.128;6.406;2022-10-18T00:36:34;18.50;64.70
66598;DHT22;57424;53.128;6.406;2022-10-18T00:39:01;18.50;64.70
66598;DHT22;57424;53.128;6.406;2022-10-18T00:41:29;18.40;64.70
66598;DHT22;57424;53.128;6.406;2022-10-18T00:46:22;18.40;64.70
66598;DHT22;57424;53.128;6.406;2022-10-18T00:48:47;18.40;64.70
66598;DHT22;57424;53.128;6.406;2022-10-18T00:51:15;18.40;64.70
66598;DHT22;57424;53.128;6.406;2022-10-18T00:53:41;18.40;64.70
66598;DHT22;57424;53.128;6.406;2022-10-18T00:56:07;18.40;64.70
66598;DHT22;57424;53.128;6.406;2022-10-18T00:58:33;18.40;64.70
66598;DHT22;57424;53.128;6.406;2022-10-18T01:00:59;18.40;64.70
66598;DHT22;57424;53.128;6.406;2022-10-18T01:03:24;18.40;64.70
66598;DHT22;57424;53.128;6.406;2022-10-18T01:05:50;18.40;64.70
66598;DHT22;57424;53.128;6.406;2022-10-18T01:11:27;18.40;64.70
66598;DHT22;57424;53.128;6.406;2022-10-18T01:17:23;18.40;64.60
66598;DHT22;57424;53.128;6.406;2022-10-18T01:20:18;18.40;64.70
66598;DHT22;57424;53.128;6.406;2022-10-18T01:22:54;18.40;64.60
66598;DHT22;57424;53.128;6.406;2022-10-18T01:25:41;18.40;64.70
66598;DHT22;57424;53.128;6.406;2022-10-18T01:31:29;18.40;64.60
66598;DHT22;57424;53.128;6.406;2022-10-18T01:33:58;18.30;64.60
66598;DHT22;57424;53.128;6.406;2022-10-18T01:36:34;18.30;64.60
66598;DHT22;57424;53.128;6.406;2022-10-18T01:39:05;18.40;64.60
66598;DHT22;57424;53.128;6.406;2022-10-18T01:41:33;18.30;64.60
66598;DHT22;57424;53.128;6.406;2022-10-18T01:44:02;18.30;64.60
66598;DHT22;57424;53.128;6.406;2022-10-18T01:46:28;18.30;64.60
66598;DHT22;57424;53.128;6.406;2022-10-18T01:48:55;18.30;64.60
66598;DHT22;57424;53.128;6.406;2022-10-18T01:51:29;18.30;64.60
66598;DHT22;57424;53.128;6.406;2022-10-18T01:53:56;18.30;64.50
66598;DHT22;57424;53.128;6.406;2022-10-18T01:56:26;18.30;64.60
66598;DHT22;57424;53.128;6.406;2022-10-18T02:02:23;18.30;64.60
66598;DHT22;57424;53.128;6.406;2022-10-18T02:05:03;18.30;64.50
66598;DHT22;57424;53.128;6.406;2022-10-18T02:08:25;18.30;64.60
66598;DHT22;57424;53.128;6.406;2022-10-18T02:10:59;18.30;64.50
66598;DHT22;57424;53.128;6.406;2022-10-18T02:13:30;18.30;64.60
66598;DHT22;57424;53.128;6.406;2022-10-18T02:16:02;18.30;64.60
66598;DHT22;57424;53.128;6.406;2022-10-18T02:18:51;18.30;64.50
66598;DHT22;57424;53.128;6.406;2022-10-18T02:21:19;18.30;64.50
66598;DHT22;57424;53.128;6.406;2022-10-18T02:23:45;18.30;64.50
66598;DHT22;57424;53.128;6.406;2022-10-18T02:26:13;18.30;64.50
66598;DHT22;57424;53.128;6.406;2022-10-18T02:28:39;18.30;64.50
66598;DHT22;57424;53.128;6.406;2022-10-18T02:31:16;18.30;64.50
66598;DHT22;57424;53.128;6.406;2022-10-18T02:33:53;18.30;64.50
66598;DHT22;57424;53.128;6.406;2022-10-18T02:36:47;18.30;64.50
66598;DHT22;57424;53.128;6.406;2022-10-18T02:39:19;18.30;64.40
66598;DHT22;57424;53.128;6.406;2022-10-18T02:41:45;18.30;64.50
66598;DHT22;57424;53.128;6.406;2022-10-18T02:44:11;18.30;64.50
66598;DHT22;57424;53.128;6.406;2022-10-18T02:46:38;18.20;64.50
66598;DHT22;57424;53.128;6.406;2022-10-18T02:49:04;18.30;64.50
66598;DHT22;57424;53.128;6.406;2022-10-18T02:51:29;18.30;64.50
66598;DHT22;57424;53.128;6.406;2022-10-18T02:53:55;18.30;64.50
66598;DHT22;57424;53.128;6.406;2022-10-18T02:56:20;18.30;64.50
66598;DHT22;57424;53.128;6.406;2022-10-18T02:58:46;18.20;64.50
66598;DHT22;57424;53.128;6.406;2022-10-18T03:01:11;18.20;64.50
66598;DHT22;57424;53.128;6.406;2022-10-18T03:03:37;18.30;64.50
66598;DHT22;57424;53.128;6.406;2022-10-18T03:06:03;18.30;64.50
66598;DHT22;57424;53.128;6.406;2022-10-18T03:08:28;18.30;64.50
66598;DHT22;57424;53.128;6.406;2022-10-18T03:10:54;18.20;64.40
66598;DHT22;57424;53.128;6.406;2022-10-18T03:13:19;18.30;64.50
66598;DHT22;57424;53.128;6.406;2022-10-18T03:15:46;18.20;64.50
66598;DHT22;57424;53.128;6.406;2022-10-18T03:18:12;18.20;64.40
66598;DHT22;57424;53.128;6.406;2022-10-18T03:20:39;18.20;64.50
66598;DHT22;57424;53.128;6.406;2022-10-18T03:23:04;18.20;64.40
66598;DHT22;57424;53.128;6.406;2022-10-18T03:25:31;18.20;64.50
66598;DHT22;57424;53.128;6.406;2022-10-18T03:27:57;18.20;64.40
66598;DHT22;57424;53.128;6.406;2022-10-18T03:30:23;18.20;64.40
66598;DHT22;57424;53.128;6.406;2022-10-18T03:32:48;18.20;64.40
66598;DHT22;57424;53.128;6.406;2022-10-18T03:35:14;18.20;64.50
66598;DHT22;57424;53.128;6.406;2022-10-18T03:37:40;18.20;64.40
66598;DHT22;57424;53.128;6.406;2022-10-18T03:40:07;18.20;64.40
66598;DHT22;57424;53.128;6.406;2022-10-18T03:42:33;18.20;64.40
66598;DHT22;57424;53.128;6.406;2022-10-18T03:44:58;18.20;64.50
66598;DHT22;57424;53.128;6.406;2022-10-18T03:47:24;18.20;64.50
66598;DHT22;57424;53.128;6.406;2022-10-18T03:49:49;18.20;64.50
66598;DHT22;57424;53.128;6.406;2022-10-18T03:52:15;18.20;64.40
66598;DHT22;57424;53.128;6.406;2022-10-18T03:54:40;18.20;64.40
66598;DHT22;57424;53.128;6.406;2022-10-18T03:57:06;18.20;64.40
66598;DHT22;57424;53.128;6.406;2022-10-18T03:59:31;18.20;64.40
66598;DHT22;57424;53.128;6.406;2022-10-18T04:01:57;18.20;64.40
66598;DHT22;57424;53.128;6.406;2022-10-18T04:04:22;18.20;64.50
66598;DHT22;57424;53.128;6.406;2022-10-18T04:06:48;18.20;64.40
66598;DHT22;57424;53.128;6.406;2022-10-18T04:09:14;18.20;64.40
66598;DHT22;57424;53.128;6.406;2022-10-18T04:11:39;18.10;64.40
66598;DHT22;57424;53.128;6.406;2022-10-18T04:14:05;18.20;64.50
66598;DHT22;57424;53.128;6.406;2022-10-18T04:16:30;18.20;64.40
66598;DHT22;57424;53.128;6.406;2022-10-18T04:18:56;18.10;64.40
66598;DHT22;57424;53.128;6.406;2022-10-18T04:21:21;18.10;64.40
66598;DHT22;57424;53.128;6.406;2022-10-18T04:23:48;18.20;64.40
66598;DHT22;57424;53.128;6.406;2022-10-18T04:26:13;18.10;64.40
66598;DHT22;57424;53.128;6.406;2022-10-18T04:28:41;18.20;64.40
66598;DHT22;57424;53.128;6.406;2022-10-18T04:31:07;18.10;64.40
66598;DHT22;57424;53.128;6.406;2022-10-18T04:33:33;18.10;64.40
66598;DHT22;57424;53.128;6.406;2022-10-18T04:35:58;18.10;64.40
66598;DHT22;57424;53.128;6.406;2022-10-18T04:38:24;18.20;64.40
66598;DHT22;57424;53.128;6.406;2022-10-18T04:40:49;18.10;64.40
66598;DHT22;57424;53.128;6.406;2022-10-18T04:43:15;18.20;64.40
66598;DHT22;57424;53.128;6.406;2022-10-18T04:45:40;18.20;64.40
66598;DHT22;57424;53.128;6.406;2022-10-18T04:48:06;18.10;64.30
66598;DHT22;57424;53.128;6.406;2022-10-18T04:50:32;18.20;64.40
66598;DHT22;57424;53.128;6.406;2022-10-18T04:52:57;18.10;64.40
66598;DHT22;57424;53.128;6.406;2022-10-18T04:55:23;18.20;64.40
66598;DHT22;57424;53.128;6.406;2022-10-18T04:57:48;18.10;64.30
66598;DHT22;57424;53.128;6.406;2022-10-18T05:00:14;18.10;64.30
66598;DHT22;57424;53.128;6.406;2022-10-18T05:02:40;18.20;64.40
66598;DHT22;57424;53.128;6.406;2022-10-18T05:05:05;18.10;64.30
66598;DHT22;57424;53.128;6.406;2022-10-18T05:07:31;18.10;64.30
66598;DHT22;57424;53.128;6.406;2022-10-18T05:09:56;18.10;64.30
66598;DHT22;57424;53.128;6.406;2022-10-18T05:12:22;18.10;64.40
66598;DHT22;57424;53.128;6.406;2022-10-18T05:14:48;18.10;64.40
66598;DHT22;57424;53.128;6.406;2022-10-18T05:17:13;18.20;64.40
66598;DHT22;57424;53.128;6.406;2022-10-18T05:19:39;18.10;64.30
66598;DHT22;57424;53.128;6.406;2022-10-18T05:22:04;18.20;64.40
66598;DHT22;57424;53.128;6.406;2022-10-18T05:24:30;18.10;64.40
66598;DHT22;57424;53.128;6.406;2022-10-18T05:26:56;18.20;64.40
66598;DHT22;57424;53.128;6.406;2022-10-18T05:29:22;18.20;64.50
66598;DHT22;57424;53.128;6.406;2022-10-18T05:31:48;18.10;64.40
66598;DHT22;57424;53.128;6.406;2022-10-18T05:34:13;18.20;64.50
66598;DHT22;57424;53.128;6.406;2022-10-18T05:36:39;18.20;64.50
66598;DHT22;57424;53.128;6.406;2022-10-18T05:39:05;18.20;64.40
66598;DHT22;57424;53.128;6.406;2022-10-18T05:41:31;18.20;64.40
66598;DHT22;57424;53.128;6.406;2022-10-18T05:43:57;18.20;64.50
66598;DHT22;57424;53.128;6.406;2022-10-18T05:46:22;18.20;64.40
66598;DHT22;57424;53.128;6.406;2022-10-18T05:48:49;18.20;64.50
66598;DHT22;57424;53.128;6.406;2022-10-18T05:51:16;18.20;64.50
66598;DHT22;57424;53.128;6.406;2022-10-18T05:53:41;18.20;64.40
66598;DHT22;57424;53.128;6.406;2022-10-18T05:56:07;18.20;64.40
66598;DHT22;57424;53.128;6.406;2022-10-18T05:58:33;18.20;64.40
66598;DHT22;57424;53.128;6.406;2022-10-18T06:01:00;18.20;64.40
66598;DHT22;57424;53.128;6.406;2022-10-18T06:03:26;18.20;64.50
66598;DHT22;57424;53.128;6.406;2022-10-18T06:05:52;18.20;64.80
66598;DHT22;57424;53.128;6.406;2022-10-18T06:08:18;18.20;64.90
66598;DHT22;57424;53.128;6.406;2022-10-18T06:10:44;18.20;65.10
66598;DHT22;57424;53.128;6.406;2022-10-18T06:13:09;18.30;65.20
66598;DHT22;57424;53.128;6.406;2022-10-18T06:15:35;18.30;65.10
66598;DHT22;57424;53.128;6.406;2022-10-18T06:18:01;18.30;65.10
66598;DHT22;57424;53.128;6.406;2022-10-18T06:20:26;18.30;65.10
66598;DHT22;57424;53.128;6.406;2022-10-18T06:22:52;18.30;65.10
66598;DHT22;57424;53.128;6.406;2022-10-18T06:25:17;18.30;65.10
66598;DHT22;57424;53.128;6.406;2022-10-18T06:27:43;18.30;65.10
66598;DHT22;57424;53.128;6.406;2022-10-18T06:30:09;18.30;65.10
66598;DHT22;57424;53.128;6.406;2022-10-18T06:32:35;18.30;65.70
66598;DHT22;57424;53.128;6.406;2022-10-18T06:35:00;18.30;65.10
66598;DHT22;57424;53.128;6.406;2022-10-18T06:37:28;18.30;65.00
66598;DHT22;57424;53.128;6.406;2022-10-18T06:39:54;18.40;65.10
66598;DHT22;57424;53.128;6.406;2022-10-18T06:42:20;18.30;65.00
66598;DHT22;57424;53.128;6.406;2022-10-18T06:44:45;18.30;65.00
66598;DHT22;57424;53.128;6.406;2022-10-18T06:47:12;18.30;65.10
66598;DHT22;57424;53.128;6.406;2022-10-18T06:49:37;18.30;65.00
66598;DHT22;57424;53.128;6.406;2022-10-18T06:52:03;18.30;65.00
66598;DHT22;57424;53.128;6.406;2022-10-18T06:54:28;18.30;65.00
66598;DHT22;57424;53.128;6.406;2022-10-18T06:56:55;18.30;65.10
66598;DHT22;57424;53.128;6.406;2022-10-18T06:59:21;18.40;65.20
66598;DHT22;57424;53.128;6.406;2022-10-18T07:01:47;18.40;65.10
66598;DHT22;57424;53.128;6.406;2022-10-18T07:04:12;18.40;65.10
66598;DHT22;57424;53.128;6.406;2022-10-18T07:06:38;18.40;65.10
66598;DHT22;57424;53.128;6.406;2022-10-18T07:09:03;18.40;65.10
66598;DHT22;57424;53.128;6.406;2022-10-18T07:11:29;18.40;65.10
66598;DHT22;57424;53.128;6.406;2022-10-18T07:13:58;18.40;65.10
66598;DHT22;57424;53.128;6.406;2022-10-18T07:16:29;18.40;65.10
66598;DHT22;57424;53.128;6.406;2022-10-18T07:18:55;18.40;65.00
66598;DHT22;57424;53.128;6.406;2022-10-18T07:21:23;18.40;65.00
66598;DHT22;57424;53.128;6.406;2022-10-18T07:23:49;18.40;65.10
66598;DHT22;57424;53.128;6.406;2022-10-18T07:28:50;18.40;65.10
66598;DHT22;57424;53.128;6.406;2022-10-18T07:31:16;18.40;65.00
66598;DHT22;57424;53.128;6.406;2022-10-18T07:33:42;18.40;65.00
66598;DHT22;57424;53.128;6.406;2022-10-18T07:36:09;18.40;65.00
66598;DHT22;57424;53.128;6.406;2022-10-18T07:38:35;18.40;65.00
66598;DHT22;57424;53.128;6.406;2022-10-18T07:41:02;18.40;64.90
66598;DHT22;57424;53.128;6.406;2022-10-18T07:43:29;18.40;65.00
66598;DHT22;57424;53.128;6.406;2022-10-18T07:45:57;18.40;65.00
66598;DHT22;57424;53.128;6.406;2022-10-18T07:48:24;18.40;65.00
66598;DHT22;57424;53.128;6.406;2022-10-18T07:50:49;18.40;65.00
66598;DHT22;57424;53.128;6.406;2022-10-18T07:53:15;18.40;65.10
66598;DHT22;57424;53.128;6.406;2022-10-18T07:55:40;18.50;65.10
66598;DHT22;57424;53.128;6.406;2022-10-18T07:58:06;18.50;65.10
66598;DHT22;57424;53.128;6.406;2022-10-18T08:00:32;18.50;65.10
66598;DHT22;57424;53.128;6.406;2022-10-18T08:02:58;18.60;65.00
66598;DHT22;57424;53.128;6.406;2022-10-18T08:05:25;18.60;64.90
66598;DHT22;57424;53.128;6.406;2022-10-18T08:07:51;18.60;64.70
66598;DHT22;57424;53.128;6.406;2022-10-18T08:10:17;18.60;64.70
66598;DHT22;57424;53.128;6.406;2022-10-18T08:12:42;18.60;64.70
66598;DHT22;57424;53.128;6.406;2022-10-18T08:15:08;18.50;64.60
66598;DHT22;57424;53.128;6.406;2022-10-18T08:17:34;18.60;64.60
66598;DHT22;57424;53.128;6.406;2022-10-18T08:20:00;18.60;64.60
66598;DHT22;57424;53.128;6.406;2022-10-18T08:22:25;18.60;64.60
66598;DHT22;57424;53.128;6.406;2022-10-18T08:24:51;18.60;64.70
66598;DHT22;57424;53.128;6.406;2022-10-18T08:27:16;18.60;64.70
66598;DHT22;57424;53.128;6.406;2022-10-18T08:29:42;18.60;64.90
66598;DHT22;57424;53.128;6.406;2022-10-18T08:32:07;18.60;64.90
66598;DHT22;57424;53.128;6.406;2022-10-18T08:34:34;18.70;64.80
66598;DHT22;57424;53.128;6.406;2022-10-18T08:36:59;18.80;64.70
66598;DHT22;57424;53.128;6.406;2022-10-18T08:39:25;18.80;64.70
66598;DHT22;57424;53.128;6.406;2022-10-18T08:44:29;18.80;64.70
66598;DHT22;57424;53.128;6.406;2022-10-18T08:47:34;18.90;64.70
66598;DHT22;57424;53.128;6.406;2022-10-18T08:50:05;18.90;64.70
66598;DHT22;57424;53.128;6.406;2022-10-18T08:57:52;18.90;64.80
66598;DHT22;57424;53.128;6.406;2022-10-18T09:00:21;18.90;64.90
66598;DHT22;57424;53.128;6.406;2022-10-18T09:05:51;19.00;65.60
66598;DHT22;57424;53.128;6.406;2022-10-18T09:08:21;19.00;65.00
66598;DHT22;57424;53.128;6.406;2022-10-18T09:11:18;19.00;65.00
66598;DHT22;57424;53.128;6.406;2022-10-18T09:14:02;19.00;65.10
66598;DHT22;57424;53.128;6.406;2022-10-18T09:16:44;19.00;65.10
66598;DHT22;57424;53.128;6.406;2022-10-18T09:19:19;19.00;65.70
66598;DHT22;57424;53.128;6.406;2022-10-18T09:21:56;19.00;65.10
66598;DHT22;57424;53.128;6.406;2022-10-18T09:24:55;19.00;65.10
66598;DHT22;57424;53.128;6.406;2022-10-18T09:27:34;19.00;65.00
66598;DHT22;57424;53.128;6.406;2022-10-18T09:32:55;19.00;65.00
66598;DHT22;57424;53.128;6.406;2022-10-18T09:35:38;19.00;65.00
66598;DHT22;57424;53.128;6.406;2022-10-18T09:38:10;19.00;65.10
66598;DHT22;57424;53.128;6.406;2022-10-18T09:40:45;18.90;65.00
66598;DHT22;57424;53.128;6.406;2022-10-18T09:43:21;18.90;65.10
66598;DHT22;57424;53.128;6.406;2022-10-18T09:45:48;18.90;65.10
66598;DHT22;57424;53.128;6.406;2022-10-18T09:48:28;18.90;65.20
66598;DHT22;57424;53.128;6.406;2022-10-18T09:51:01;18.90;65.20
66598;DHT22;57424;53.128;6.406;2022-10-18T09:54:13;18.90;65.30
66598;DHT22;57424;53.128;6.406;2022-10-18T10:02:04;19.00;65.40
66598;DHT22;57424;53.128;6.406;2022-10-18T10:04:30;19.00;65.40
66598;DHT22;57424;53.128;6.406;2022-10-18T10:06:59;19.10;65.50
66598;DHT22;57424;53.128;6.406;2022-10-18T10:09:55;19.10;65.40
66598;DHT22;57424;53.128;6.406;2022-10-18T10:12:29;19.10;65.50
66598;DHT22;57424;53.128;6.406;2022-10-18T10:17:32;19.10;65.50
66598;DHT22;57424;53.128;6.406;2022-10-18T10:20:28;19.10;65.50
66598;DHT22;57424;53.128;6.406;2022-10-18T10:22:51;19.10;65.50
66598;DHT22;57424;53.128;6.406;2022-10-18T10:25:34;19.20;65.50
66598;DHT22;57424;53.128;6.406;2022-10-18T10:28:13;19.20;65.50
66598;DHT22;57424;53.128;6.406;2022-10-18T10:30:39;19.20;65.50
66598;DHT22;57424;53.128;6.406;2022-10-18T10:33:05;19.20;65.40
66598;DHT22;57424;53.128;6.406;2022-10-18T10:35:33;19.20;65.50
66598;DHT22;57424;53.128;6.406;2022-10-18T10:37:59;19.20;65.50
66598;DHT22;57424;53.128;6.406;2022-10-18T10:40:30;19.20;65.50
66598;DHT22;57424;53.128;6.406;2022-10-18T10:46:08;19.30;65.50
66598;DHT22;57424;53.128;6.406;2022-10-18T10:49:00;19.30;65.50
66598;DHT22;57424;53.128;6.406;2022-10-18T10:51:35;19.30;65.50
66598;DHT22;57424;53.128;6.406;2022-10-18T10:57:04;19.30;65.50
66598;DHT22;57424;53.128;6.406;2022-10-18T11:02:18;19.30;65.50
66598;DHT22;57424;53.128;6.406;2022-10-18T11:04:56;19.30;65.40
66598;DHT22;57424;53.128;6.406;2022-10-18T11:07:41;19.40;65.50
66598;DHT22;57424;53.128;6.406;2022-10-18T11:15:37;19.40;65.40
66598;DHT22;57424;53.128;6.406;2022-10-18T11:18:28;19.40;65.40
66598;DHT22;57424;53.128;6.406;2022-10-18T11:21:05;19.40;65.40
66598;DHT22;57424;53.128;6.406;2022-10-18T11:23:33;19.40;65.40
66598;DHT22;57424;53.128;6.406;2022-10-18T11:39:57;19.40;65.40
66598;DHT22;57424;53.128;6.406;2022-10-18T11:45:44;19.30;65.30
66598;DHT22;57424;53.128;6.406;2022-10-18T11:51:08;19.40;65.40
66598;DHT22;57424;53.128;6.406;2022-10-18T11:56:24;19.40;65.40
66598;DHT22;57424;53.128;6.406;2022-10-18T12:01:54;19.40;65.30
66598;DHT22;57424;53.128;6.406;2022-10-18T12:04:24;19.30;65.90
66598;DHT22;57424;53.128;6.406;2022-10-18T12:06:53;19.40;65.30
66598;DHT22;57424;53.128;6.406;2022-10-18T12:09:38;19.40;65.30
66598;DHT22;57424;53.128;6.406;2022-10-18T12:12:11;19.40;65.30
66598;DHT22;57424;53.128;6.406;2022-10-18T12:14:46;19.40;65.30
66598;DHT22;57424;53.128;6.406;2022-10-18T12:20:05;19.40;65.30
66598;DHT22;57424;53.128;6.406;2022-10-18T12:22:37;19.40;65.30
66598;DHT22;57424;53.128;6.406;2022-10-18T12:25:05;19.40;65.30
66598;DHT22;57424;53.128;6.406;2022-10-18T12:30:48;19.40;65.20
66598;DHT22;57424;53.128;6.406;2022-10-18T12:33:19;19.40;65.20
66598;DHT22;57424;53.128;6.406;2022-10-18T12:36:01;19.40;65.20
66598;DHT22;57424;53.128;6.406;2022-10-18T12:38:32;19.40;65.20
66598;DHT22;57424;53.128;6.406;2022-10-18T12:40:59;19.40;65.20
66598;DHT22;57424;53.128;6.406;2022-10-18T12:43:27;19.40;65.20
66598;DHT22;57424;53.128;6.406;2022-10-18T12:45:59;19.40;65.20
66598;DHT22;57424;53.128;6.406;2022-10-18T12:48:39;19.40;65.20
66598;DHT22;57424;53.128;6.406;2022-10-18T12:51:22;19.40;65.20
66598;DHT22;57424;53.128;6.406;2022-10-18T12:54:10;19.40;65.20
66598;DHT22;57424;53.128;6.406;2022-10-18T12:56:41;19.40;65.20
66598;DHT22;57424;53.128;6.406;2022-10-18T13:09:24;19.40;65.20
66598;DHT22;57424;53.128;6.406;2022-10-18T13:11:50;19.40;65.20
66598;DHT22;57424;53.128;6.406;2022-10-18T13:16:58;19.40;65.20
66598;DHT22;57424;53.128;6.406;2022-10-18T13:25:20;19.40;65.20
66598;DHT22;57424;53.128;6.406;2022-10-18T13:28:04;19.50;65.20
66598;DHT22;57424;53.128;6.406;2022-10-18T13:30:39;19.50;65.30
66598;DHT22;57424;53.128;6.406;2022-10-18T13:38:36;19.40;65.30
66598;DHT22;57424;53.128;6.406;2022-10-18T13:46:23;19.50;65.30
66598;DHT22;57424;53.128;6.406;2022-10-18T13:48:50;19.50;65.30
66598;DHT22;57424;53.128;6.406;2022-10-18T14:02:33;19.60;65.40
66598;DHT22;57424;53.128;6.406;2022-10-18T14:05:46;19.60;65.40
66598;DHT22;57424;53.128;6.406;2022-10-18T14:13:51;19.60;65.50
66598;DHT22;57424;53.128;6.406;2022-10-18T14:18:59;19.60;65.40
66598;DHT22;57424;53.128;6.406;2022-10-18T14:21:33;19.60;65.50
66598;DHT22;57424;53.128;6.406;2022-10-18T14:24:00;19.60;65.50
66598;DHT22;57424;53.128;6.406;2022-10-18T14:26:26;19.60;65.50
66598;DHT22;57424;53.128;6.406;2022-10-18T14:29:03;19.60;65.50
66598;DHT22;57424;53.128;6.406;2022-10-18T14:31:29;19.70;65.50
66598;DHT22;57424;53.128;6.406;2022-10-18T14:33:56;19.70;65.60
66598;DHT22;57424;53.128;6.406;2022-10-18T14:36:25;19.70;65.50
66598;DHT22;57424;53.128;6.406;2022-10-18T14:41:27;19.70;65.50
66598;DHT22;57424;53.128;6.406;2022-10-18T14:44:19;19.70;65.60
66598;DHT22;57424;53.128;6.406;2022-10-18T14:49:15;19.70;65.60
66598;DHT22;57424;53.128;6.406;2022-10-18T14:51:42;19.70;65.60
66598;DHT22;57424;53.128;6.406;2022-10-18T14:54:29;19.70;65.50
66598;DHT22;57424;53.128;6.406;2022-10-18T14:56:56;19.80;65.60
66598;DHT22;57424;53.128;6.406;2022-10-18T14:59:27;19.70;65.50
66598;DHT22;57424;53.128;6.406;2022-10-18T15:02:11;19.70;65.50
66598;DHT22;57424;53.128;6.406;2022-10-18T15:04:37;19.70;65.50
66598;DHT22;57424;53.128;6.406;2022-10-18T15:07:06;19.70;65.50
66598;DHT22;57424;53.128;6.406;2022-10-18T15:09:33;19.70;65.50
66598;DHT22;57424;53.128;6.406;2022-10-18T15:12:02;19.70;65.50
66598;DHT22;57424;53.128;6.406;2022-10-18T15:14:29;19.70;65.50
66598;DHT22;57424;53.128;6.406;2022-10-18T15:16:59;19.70;65.50
66598;DHT22;57424;53.128;6.406;2022-10-18T15:19:32;19.70;65.50
66598;DHT22;57424;53.128;6.406;2022-10-18T15:22:06;19.70;65.50
66598;DHT22;57424;53.128;6.406;2022-10-18T15:24:35;19.70;65.40
66598;DHT22;57424;53.128;6.406;2022-10-18T15:27:19;19.70;65.40
66598;DHT22;57424;53.128;6.406;2022-10-18T15:29:46;19.70;65.40
66598;DHT22;57424;53.128;6.406;2022-10-18T15:32:24;19.70;65.40
66598;DHT22;57424;53.128;6.406;2022-10-18T15:34:51;19.70;65.40
66598;DHT22;57424;53.128;6.406;2022-10-18T15:42:49;19.70;65.30
66598;DHT22;57424;53.128;6.406;2022-10-18T15:48:01;19.60;65.30
66598;DHT22;57424;53.128;6.406;2022-10-18T15:50:48;19.60;65.20
66598;DHT22;57424;53.128;6.406;2022-10-18T15:55:55;19.60;65.20
66598;DHT22;57424;53.128;6.406;2022-10-18T15:58:42;19.60;65.10
66598;DHT22;57424;53.128;6.406;2022-10-18T16:01:17;19.60;65.10
66598;DHT22;57424;53.128;6.406;2022-10-18T16:03:45;19.60;65.10
66598;DHT22;57424;53.128;6.406;2022-10-18T16:06:12;19.60;65.10
66598;DHT22;57424;53.128;6.406;2022-10-18T16:08:47;19.60;65.10
66598;DHT22;57424;53.128;6.406;2022-10-18T16:11:17;19.60;65.00
66598;DHT22;57424;53.128;6.406;2022-10-18T16:13:43;19.60;65.00
66598;DHT22;57424;53.128;6.406;2022-10-18T16:16:15;19.60;65.00
66598;DHT22;57424;53.128;6.406;2022-10-18T16:18:41;19.60;64.90
66598;DHT22;57424;53.128;6.406;2022-10-18T16:21:24;19.60;64.90
66598;DHT22;57424;53.128;6.406;2022-10-18T16:23:51;19.60;64.90
66598;DHT22;57424;53.128;6.406;2022-10-18T16:26:18;19.60;64.90
66598;DHT22;57424;53.128;6.406;2022-10-18T16:28:44;19.60;64.80
66598;DHT22;57424;53.128;6.406;2022-10-18T16:31:24;19.60;64.80
66598;DHT22;57424;53.128;6.406;2022-10-18T16:33:51;19.60;64.80
66598;DHT22;57424;53.128;6.406;2022-10-18T16:36:20;19.60;64.90
66598;DHT22;57424;53.128;6.406;2022-10-18T16:38:47;19.60;64.90
66598;DHT22;57424;53.128;6.406;2022-10-18T16:41:13;19.60;65.00
66598;DHT22;57424;53.128;6.406;2022-10-18T16:43:44;19.60;65.00
66598;DHT22;57424;53.128;6.406;2022-10-18T16:46:16;19.60;65.20
66598;DHT22;57424;53.128;6.406;2022-10-18T16:48:43;19.60;65.20
66598;DHT22;57424;53.128;6.406;2022-10-18T16:51:09;19.60;65.30
66598;DHT22;57424;53.128;6.406;2022-10-18T16:53:35;19.60;65.30
66598;DHT22;57424;53.128;6.406;2022-10-18T16:56:02;19.60;65.30
66598;DHT22;57424;53.128;6.406;2022-10-18T16:58:30;19.60;65.40
66598;DHT22;57424;53.128;6.406;2022-10-18T17:00:57;19.60;65.40
66598;DHT22;57424;53.128;6.406;2022-10-18T17:03:23;19.60;65.40
66598;DHT22;57424;53.128;6.406;2022-10-18T17:05:49;19.60;65.50
66598;DHT22;57424;53.128;6.406;2022-10-18T17:08:24;19.60;65.40
66598;DHT22;57424;53.128;6.406;2022-10-18T17:10:52;19.60;65.50
66598;DHT22;57424;53.128;6.406;2022-10-18T17:13:18;19.60;65.40
66598;DHT22;57424;53.128;6.406;2022-10-18T17:15:45;19.60;65.50
66598;DHT22;57424;53.128;6.406;2022-10-18T17:18:15;19.60;65.50
66598;DHT22;57424;53.128;6.406;2022-10-18T17:20:42;19.60;65.50
66598;DHT22;57424;53.128;6.406;2022-10-18T17:23:08;19.60;65.50
66598;DHT22;57424;53.128;6.406;2022-10-18T17:25:38;19.60;65.60
66598;DHT22;57424;53.128;6.406;2022-10-18T17:28:05;19.60;65.60
66598;DHT22;57424;53.128;6.406;2022-10-18T17:30:31;19.60;65.70
66598;DHT22;57424;53.128;6.406;2022-10-18T17:32:56;19.60;65.70
66598;DHT22;57424;53.128;6.406;2022-10-18T17:35:22;19.60;65.80
66598;DHT22;57424;53.128;6.406;2022-10-18T17:37:49;19.60;65.80
66598;DHT22;57424;53.128;6.406;2022-10-18T17:40:15;19.60;65.80
66598;DHT22;57424;53.128;6.406;2022-10-18T17:42:41;19.60;65.90
66598;DHT22;57424;53.128;6.406;2022-10-18T17:45:07;19.50;65.80
66598;DHT22;57424;53.128;6.406;2022-10-18T17:47:33;19.50;65.90
66598;DHT22;57424;53.128;6.406;2022-10-18T17:49:58;19.50;65.80
66598;DHT22;57424;53.128;6.406;2022-10-18T17:52:24;19.60;65.90
66598;DHT22;57424;53.128;6.406;2022-10-18T17:54:50;19.50;65.90
66598;DHT22;57424;53.128;6.406;2022-10-18T17:57:15;19.50;66.00
66598;DHT22;57424;53.128;6.406;2022-10-18T17:59:41;19.50;65.90
66598;DHT22;57424;53.128;6.406;2022-10-18T18:02:09;19.50;65.90
66598;DHT22;57424;53.128;6.406;2022-10-18T18:04:35;19.50;65.90
66598;DHT22;57424;53.128;6.406;2022-10-18T18:07:00;19.50;65.90
66598;DHT22;57424;53.128;6.406;2022-10-18T18:09:29;19.50;65.90
66598;DHT22;57424;53.128;6.406;2022-10-18T18:11:54;19.50;65.90
66598;DHT22;57424;53.128;6.406;2022-10-18T18:14:20;19.50;65.80
66598;DHT22;57424;53.128;6.406;2022-10-18T18:16:46;19.50;65.80